To NAV CANADA Home Page Login to a new session Search on AWWS site Feedback and Comments Disclaimer Vers la page française équivalente Tips FAQ What's new on the site To the Forecasts and Observations / NOTAM section To "File a Flight Plan" website Publications and other links Update of the User's profile FIC Telephone Numbers My Weather Data Folder Route Weather Data Regional Weather Data Local Weather Data To the Forecasts and Observations / NOTAM section
Request Generated 04/24/2014 at 17:47:10 UTC . Weather information available at that time is displayed.

METAR/TAF

ARVIAT/NU    

METAR CYEK 241700Z 33008KT 12SM FEW270 M14/M17 A3050 RMK CI1 SLP330=
METAR CYEK 241600Z 33008KT 12SM SKC M15/M18 A3050 RMK TR SC SLP328=
METAR CYEK 241500Z 35010KT 15SM SKC M17/M20 A3049 RMK SLP326=

TAF CYEK 241738Z 2418/2506 33008KT P6SM SKC
BECMG 2501/2503 VRB03KT
RMK NXT FCST BY 250000Z=
Your time UTC time
Weather data provided by Environment Canada and NAV CANADA